Flagstaff, Arizona
Current Conditions -  °F | °C
As of 8:57 AM on Monday 24 Nov 2014 (Local Time) from KFLG Reporting Station
Clear Clear  
Wind Chill: 28°   Ceiling: Unl
Heat Index: 37°   Visibility: 10mi
Dew Point: -2°   Wind: 14mph
Humidity: 19%   Direction: 330°NNW
Pressure: 30.25"   Gusts: 22mph
Location:  35.2°N, 111.65°W
Report Text: KFLG 241557Z 33012G19KT 10SM CLR 03/M19 A3025 RMK AO2 SLP246 T00281189
Loading
Personal Weather Stations






























Interactive Weather Map New forecast layout! Learn more

10-Day Weather Forecast

Advertisements
Track Severe Weather on mobile